Terminal Aerodrome Forecast
Issued by NWS Charleston, WV

Current Version | Previous Version | Graphics & Text | Print | Product List | Glossary On
Versions: 1 2 3 4 5 6 7 8 9 10 11 12 13 14 15 16 17 18 19 20 21 22 23 24 25 26 27
679
FTUS41 KRLX 182254 AAB
TAFBKW
TAF AMD
KBKW 182254Z 1823/1918 30004KT P6SM OVC008
     FM190500 VRB03KT P6SM SCT015
     FM191000 00000KT P6SM SCT150=

USA.gov is the U.S. government's official web portal to all federal, state and local government web resources and services.